createdAt,value
2022-12-11T00:02:54.377Z,69.77
2022-12-11T00:12:59.319Z,69.73
2022-12-11T00:23:02.560Z,69.90
2022-12-11T00:33:06.956Z,70.70
2022-12-11T00:43:10.133Z,69.73
2022-12-11T00:53:14.611Z,69.10
2022-12-11T01:03:18.479Z,69.17
2022-12-11T01:13:23.022Z,68.69
2022-12-11T01:23:26.324Z,68.56
2022-12-11T01:33:31.439Z,67.86
2022-12-11T01:43:34.515Z,67.18
2022-12-11T01:53:40.616Z,67.83
2022-12-11T02:03:44.828Z,67.89
2022-12-11T02:13:55.116Z,67.14
2022-12-11T02:24:09.207Z,67.53
2022-12-11T02:34:18.297Z,67.60
2022-12-11T02:44:25.508Z,67.17
2022-12-11T02:54:33.555Z,66.34
2022-12-11T03:04:37.809Z,67.08
2022-12-11T03:14:42.952Z,67.15
2022-12-11T03:24:48.835Z,67.08
2022-12-11T03:34:58.460Z,66.74
2022-12-11T03:45:02.348Z,67.99
2022-12-11T03:55:08.726Z,67.15
2022-12-11T04:05:12.863Z,66.77
2022-12-11T04:15:17.526Z,67.08
2022-12-11T04:25:20.860Z,67.21
2022-12-11T04:35:25.391Z,67.38
2022-12-11T04:45:28.462Z,68.06
2022-12-11T04:55:33.065Z,68.20
2022-12-11T05:05:36.163Z,67.32
2022-12-11T05:15:41.499Z,67.20
2022-12-11T05:25:46.098Z,67.77
2022-12-11T05:35:50.582Z,68.03
2022-12-11T05:45:53.788Z,67.21
2022-12-11T05:56:02.518Z,68.18
2022-12-11T06:06:06.354Z,67.00
2022-12-11T06:16:11.219Z,68.25
2022-12-11T06:26:15.154Z,66.58
2022-12-11T06:36:21.728Z,67.80
2022-12-11T06:46:24.969Z,65.57
2022-12-11T06:56:29.550Z,65.93
2022-12-11T07:06:32.629Z,69.50
2022-12-11T07:16:37.404Z,66.16
2022-12-11T07:26:40.710Z,66.86
2022-12-11T07:36:45.279Z,65.52
2022-12-11T07:46:48.425Z,65.13
2022-12-11T07:56:54.063Z,65.39
2022-12-11T08:06:57.342Z,64.86
2022-12-11T08:17:02.517Z,63.92
2022-12-11T08:27:06.651Z,63.61
2022-12-11T08:37:12.228Z,62.12
2022-12-11T08:47:17.096Z,64.59
2022-12-11T08:57:22.283Z,61.46
2022-12-11T09:07:26.437Z,59.45
2022-12-11T09:17:30.929Z,61.65
2022-12-11T09:27:35.458Z,61.53
2022-12-11T09:37:41.299Z,61.05
2022-12-11T09:47:46.202Z,60.94
2022-12-11T09:57:56.965Z,60.94
2022-12-11T10:08:06.186Z,61.58
2022-12-11T10:18:14.925Z,60.66
2022-12-11T10:28:19.909Z,59.98
2022-12-11T10:38:28.204Z,58.80
2022-12-11T10:48:31.335Z,59.59
2022-12-11T10:58:50.359Z,59.06
2022-12-11T11:08:55.676Z,58.54
2022-12-11T11:19:00.338Z,58.18
2022-12-11T11:29:03.897Z,57.78
2022-12-11T11:39:24.647Z,57.90
2022-12-11T11:49:38.120Z,56.49
2022-12-11T11:59:45.207Z,56.94
2022-12-11T12:09:54.656Z,55.54
2022-12-11T12:20:05.474Z,56.53
2022-12-11T12:30:15.075Z,56.49
2022-12-11T12:40:30.308Z,56.17
2022-12-11T12:50:38.767Z,55.54
2022-12-11T13:00:44.460Z,56.27
2022-12-11T13:10:47.628Z,55.16
2022-12-11T13:20:53.296Z,55.77
2022-12-11T13:31:08.818Z,55.33
2022-12-11T13:41:13.728Z,55.23
2022-12-11T13:51:19.086Z,55.24
2022-12-11T14:01:27.413Z,55.43
2022-12-11T14:11:36.389Z,54.81
2022-12-11T14:21:40.859Z,53.73
2022-12-11T14:31:45.427Z,54.95
2022-12-11T14:41:53.317Z,54.04
2022-12-11T14:51:57.129Z,54.84
2022-12-11T15:02:04.092Z,54.63
2022-12-11T15:12:11.707Z,54.82
2022-12-11T15:22:17.191Z,55.86
2022-12-11T15:32:21.776Z,56.13
2022-12-11T15:42:28.863Z,55.21
2022-12-11T15:52:35.207Z,56.04
2022-12-11T16:02:39.642Z,55.37
2022-12-11T16:12:43.453Z,55.98
2022-12-11T16:22:47.891Z,55.03
2022-12-11T16:32:51.291Z,55.59
2022-12-11T16:42:55.884Z,54.28
2022-12-11T16:52:59.395Z,54.76
2022-12-11T17:03:03.967Z,53.41
2022-12-11T17:13:07.323Z,51.92
2022-12-11T17:23:13.527Z,51.97
2022-12-11T17:33:17.858Z,55.76
2022-12-11T17:43:22.415Z,53.60
2022-12-11T17:53:26.389Z,53.30
2022-12-11T18:03:31.031Z,55.67
2022-12-11T18:13:34.482Z,53.70
2022-12-11T18:23:39.192Z,53.69
2022-12-11T18:33:44.342Z,55.12
2022-12-11T18:43:49.558Z,57.50
2022-12-11T18:53:53.953Z,53.12
2022-12-11T19:04:04.153Z,55.37
2022-12-11T19:14:09.558Z,54.03
2022-12-11T19:24:16.253Z,55.00
2022-12-11T19:34:19.733Z,54.88
2022-12-11T19:44:24.621Z,54.89
2022-12-11T19:54:27.970Z,54.92
2022-12-11T20:04:35.251Z,55.28
2022-12-11T20:14:39.224Z,53.76
2022-12-11T20:24:44.167Z,53.93
2022-12-11T20:34:47.475Z,53.80
2022-12-11T20:44:52.365Z,54.11
2022-12-11T20:54:55.611Z,54.05
2022-12-11T21:05:00.443Z,54.85
2022-12-11T21:15:03.942Z,55.48
2022-12-11T21:25:09.783Z,56.18
2022-12-11T21:35:14.776Z,56.84
2022-12-11T21:45:59.220Z,55.18
2022-12-11T21:55:42.859Z,55.94
2022-12-11T22:05:47.525Z,56.35
2022-12-11T22:15:52.179Z,56.99
2022-12-11T22:25:56.917Z,56.60
2022-12-11T22:36:01.302Z,56.36
2022-12-11T22:46:05.885Z,57.03
2022-12-11T22:56:11.047Z,56.38
2022-12-11T23:06:18.364Z,56.80
2022-12-11T23:16:21.949Z,57.77
2022-12-11T23:26:28.322Z,60.44
2022-12-11T23:36:31.572Z,59.26
2022-12-11T23:46:36.089Z,58.05
2022-12-11T23:56:40.021Z,59.57
